createdAt,value
2017-09-21T00:02:16.365Z,84.72
2017-09-21T00:04:43.927Z,85.04
2017-09-21T00:07:11.429Z,85.62
2017-09-21T00:09:38.937Z,85.47
2017-09-21T00:12:06.397Z,85.33
2017-09-21T00:14:33.858Z,84.96
2017-09-21T00:17:01.416Z,84.44
2017-09-21T00:19:28.889Z,84.51
2017-09-21T00:21:56.359Z,85.35
2017-09-21T00:24:24.204Z,85.32
2017-09-21T00:26:51.759Z,85.17
2017-09-21T00:29:19.228Z,84.81
2017-09-21T00:31:46.699Z,85.00
2017-09-21T00:34:14.156Z,84.97
2017-09-21T00:36:41.994Z,84.70
2017-09-21T00:39:09.456Z,84.84
2017-09-21T00:41:36.910Z,84.69
2017-09-21T00:44:04.374Z,85.06
2017-09-21T00:46:31.840Z,85.32
2017-09-21T00:48:59.305Z,84.91
2017-09-21T00:51:26.766Z,84.64
2017-09-21T00:53:54.607Z,84.56
2017-09-21T00:56:22.069Z,84.68
2017-09-21T00:58:49.530Z,84.75
2017-09-21T01:01:17.006Z,84.95
2017-09-21T01:03:44.463Z,84.97
2017-09-21T01:06:11.930Z,85.13
2017-09-21T01:08:39.454Z,85.34
2017-09-21T01:11:06.934Z,85.39
2017-09-21T01:13:34.391Z,85.66
2017-09-21T01:16:02.262Z,85.52
2017-09-21T01:18:29.723Z,85.47
2017-09-21T01:20:57.191Z,85.33
2017-09-21T01:23:24.660Z,85.37
2017-09-21T01:25:52.118Z,85.59
2017-09-21T01:28:20.443Z,85.65
2017-09-21T01:30:47.904Z,85.59
2017-09-21T01:33:15.388Z,85.26
2017-09-21T01:35:42.852Z,85.37
2017-09-21T01:38:10.328Z,85.61
2017-09-21T01:40:37.785Z,85.62
2017-09-21T01:43:05.518Z,85.71
2017-09-21T01:45:32.980Z,85.74
2017-09-21T01:48:00.435Z,85.75
2017-09-21T01:50:27.921Z,85.80
2017-09-21T01:52:55.379Z,85.95
2017-09-21T01:55:22.850Z,85.96
2017-09-21T01:57:50.298Z,86.04
2017-09-21T02:00:17.759Z,86.00
2017-09-21T02:02:45.212Z,85.99
2017-09-21T02:05:12.682Z,85.88
2017-09-21T02:07:40.220Z,85.82
2017-09-21T02:10:08.043Z,85.89
2017-09-21T02:12:35.495Z,85.96
2017-09-21T02:15:02.958Z,85.90
2017-09-21T02:17:30.436Z,85.74
2017-09-21T02:19:57.892Z,85.61
2017-09-21T02:22:25.428Z,85.65
2017-09-21T02:24:52.886Z,85.55
2017-09-21T02:27:20.741Z,85.70
2017-09-21T02:29:48.201Z,86.49
2017-09-21T02:32:15.651Z,86.35
2017-09-21T02:34:43.262Z,86.24
2017-09-21T02:37:10.722Z,86.12
2017-09-21T02:39:38.184Z,86.24
2017-09-21T02:42:05.689Z,86.34
2017-09-21T02:44:33.455Z,86.56
2017-09-21T02:47:00.918Z,86.80
2017-09-21T02:49:28.383Z,86.59
2017-09-21T02:51:55.926Z,86.35
2017-09-21T02:54:23.479Z,86.22
2017-09-21T02:56:50.936Z,85.98
2017-09-21T02:59:18.389Z,86.20
2017-09-21T03:01:46.140Z,86.33
2017-09-21T03:04:13.606Z,86.24
2017-09-21T03:06:41.073Z,86.10
2017-09-21T03:09:08.641Z,86.18
2017-09-21T03:11:36.218Z,86.02
2017-09-21T03:14:03.768Z,86.18
2017-09-21T03:16:31.319Z,86.62
2017-09-21T03:18:59.083Z,86.63
2017-09-21T03:21:26.567Z,86.72
2017-09-21T03:23:54.023Z,86.77
2017-09-21T03:26:21.487Z,86.54
2017-09-21T03:28:49.014Z,86.62
2017-09-21T03:31:16.489Z,86.68
2017-09-21T03:33:43.955Z,87.10
2017-09-21T03:36:11.438Z,88.58
2017-09-21T03:38:38.900Z,88.65
2017-09-21T03:41:06.716Z,88.65
2017-09-21T03:43:34.176Z,88.60
2017-09-21T03:46:01.733Z,88.12
2017-09-21T03:48:29.214Z,87.25
2017-09-21T03:50:56.693Z,87.21
2017-09-21T03:53:24.509Z,87.48
2017-09-21T03:55:51.976Z,88.34
2017-09-21T03:58:19.511Z,88.37
2017-09-21T04:00:46.982Z,88.11
2017-09-21T04:03:14.460Z,87.91
2017-09-21T04:05:41.950Z,88.18
2017-09-21T04:08:09.430Z,88.30
2017-09-21T04:10:36.896Z,88.10
2017-09-21T04:13:04.352Z,87.78
2017-09-21T04:15:31.814Z,87.48
2017-09-21T04:17:59.272Z,87.80
2017-09-21T04:20:26.763Z,87.96
2017-09-21T04:22:54.355Z,88.21
2017-09-21T04:25:21.825Z,88.39
2017-09-21T04:27:49.303Z,88.78
2017-09-21T04:30:17.087Z,89.01
2017-09-21T04:32:44.543Z,89.17
2017-09-21T04:35:12.033Z,88.87
2017-09-21T04:37:39.521Z,88.93
2017-09-21T04:40:06.976Z,88.82
2017-09-21T04:42:34.439Z,88.72
2017-09-21T04:45:01.914Z,88.00
2017-09-21T04:47:29.382Z,87.45
2017-09-21T04:49:56.848Z,87.27
2017-09-21T04:52:24.634Z,87.42
2017-09-21T04:54:52.106Z,86.69
2017-09-21T04:57:19.585Z,86.70
2017-09-21T04:59:47.078Z,86.97
2017-09-21T05:02:14.542Z,86.72
2017-09-21T05:04:42.413Z,86.66
2017-09-21T05:07:09.954Z,86.69
2017-09-21T05:09:37.411Z,86.47
2017-09-21T05:12:05.052Z,86.56
2017-09-21T05:14:32.563Z,86.60
2017-09-21T05:17:00.051Z,86.61
2017-09-21T05:19:27.547Z,86.68
2017-09-21T05:21:55.015Z,86.76
2017-09-21T05:24:22.510Z,86.81
2017-09-21T05:26:50.344Z,87.29
2017-09-21T05:29:17.889Z,87.40
2017-09-21T05:31:45.469Z,87.37
2017-09-21T05:34:12.955Z,87.16
2017-09-21T05:36:40.504Z,87.24
2017-09-21T05:39:07.995Z,87.27
2017-09-21T05:41:35.495Z,87.02
2017-09-21T05:44:02.964Z,86.90
2017-09-21T05:46:30.423Z,86.86
2017-09-21T05:48:58.299Z,86.77
2017-09-21T05:51:25.760Z,86.74
2017-09-21T05:53:53.241Z,86.64
2017-09-21T05:56:20.727Z,86.62
2017-09-21T05:58:48.192Z,86.58
2017-09-21T06:01:15.663Z,86.62
2017-09-21T06:03:43.117Z,86.61
2017-09-21T06:06:10.883Z,86.59
2017-09-21T06:08:38.512Z,86.67
2017-09-21T06:11:05.971Z,86.61
2017-09-21T06:13:33.460Z,86.71
2017-09-21T06:16:00.958Z,86.61
2017-09-21T06:18:28.466Z,86.46
2017-09-21T06:20:55.919Z,86.28
2017-09-21T06:23:23.380Z,86.02
2017-09-21T06:25:50.842Z,85.80
2017-09-21T06:28:18.625Z,85.76
2017-09-21T06:30:46.112Z,85.70
2017-09-21T06:33:13.576Z,85.52
2017-09-21T06:35:41.041Z,85.48
2017-09-21T06:38:08.509Z,85.50
2017-09-21T06:40:35.991Z,85.56
2017-09-21T06:43:03.455Z,85.54
2017-09-21T06:45:31.338Z,85.52
2017-09-21T06:47:58.805Z,85.55
2017-09-21T06:50:26.264Z,85.71
2017-09-21T06:52:53.740Z,85.88
2017-09-21T06:55:21.199Z,85.97
2017-09-21T06:57:48.667Z,85.98
2017-09-21T07:00:16.116Z,85.92
2017-09-21T07:02:43.632Z,85.91
2017-09-21T07:05:11.199Z,85.90
2017-09-21T07:07:39.042Z,85.99
2017-09-21T07:10:06.523Z,86.22
2017-09-21T07:12:34.055Z,86.49
2017-09-21T07:15:01.564Z,86.33
2017-09-21T07:17:29.040Z,86.36
2017-09-21T07:19:56.529Z,86.39
2017-09-21T07:22:24.002Z,86.42
2017-09-21T07:24:51.930Z,86.58
2017-09-21T07:27:19.406Z,86.70
2017-09-21T07:29:46.867Z,86.69
2017-09-21T07:32:14.356Z,86.53
2017-09-21T07:34:41.833Z,86.35
2017-09-21T07:37:09.346Z,86.22
2017-09-21T07:39:36.790Z,86.05
2017-09-21T07:42:04.368Z,86.10
2017-09-21T07:44:31.828Z,86.12
2017-09-21T07:46:59.391Z,86.06
2017-09-21T07:49:26.855Z,86.03
2017-09-21T07:51:54.327Z,85.87
2017-09-21T07:54:21.818Z,85.99
2017-09-21T07:56:49.296Z,85.83
2017-09-21T07:59:17.093Z,85.79
2017-09-21T08:01:44.565Z,85.53
2017-09-21T08:04:12.091Z,85.35
2017-09-21T08:06:39.560Z,85.19
2017-09-21T08:09:07.040Z,85.11
2017-09-21T08:11:34.538Z,84.85
2017-09-21T08:14:02.006Z,84.74
2017-09-21T08:16:29.481Z,84.44
2017-09-21T08:18:56.939Z,84.20
2017-09-21T08:21:24.421Z,83.97
2017-09-21T08:23:51.878Z,83.74
2017-09-21T08:26:19.728Z,83.40
2017-09-21T08:28:47.209Z,83.03
2017-09-21T08:31:14.686Z,82.44
2017-09-21T08:33:42.333Z,81.93
2017-09-21T08:36:09.800Z,81.07
2017-09-21T08:38:37.301Z,80.12
2017-09-21T08:41:04.766Z,80.19
2017-09-21T08:43:32.232Z,80.19
2017-09-21T08:45:59.779Z,79.75
2017-09-21T08:48:27.512Z,79.67
2017-09-21T08:50:55.009Z,79.48
2017-09-21T08:53:22.468Z,79.12
2017-09-21T08:55:49.936Z,78.64
2017-09-21T08:58:17.422Z,78.62
2017-09-21T09:00:44.935Z,78.76
2017-09-21T09:03:12.408Z,78.82
2017-09-21T09:05:39.889Z,78.83
2017-09-21T09:08:07.359Z,78.85
2017-09-21T09:10:34.844Z,78.56
2017-09-21T09:13:03.015Z,78.46
2017-09-21T09:15:30.810Z,78.25
2017-09-21T09:17:58.284Z,78.01
2017-09-21T09:20:25.760Z,77.47
2017-09-21T09:22:53.278Z,77.12
2017-09-21T09:25:20.737Z,76.67
2017-09-21T09:27:48.223Z,76.69
2017-09-21T09:30:15.695Z,76.73
2017-09-21T09:32:43.174Z,76.94
2017-09-21T09:35:10.645Z,77.22
2017-09-21T09:37:38.420Z,77.66
2017-09-21T09:40:05.995Z,77.98
2017-09-21T09:42:33.498Z,78.02
2017-09-21T09:45:01.016Z,78.04
2017-09-21T09:47:28.494Z,77.99
2017-09-21T09:49:55.979Z,77.68
2017-09-21T09:52:23.466Z,77.58
2017-09-21T09:54:50.976Z,77.28
2017-09-21T09:57:18.494Z,77.16
2017-09-21T09:59:46.274Z,77.11
2017-09-21T10:02:13.735Z,77.13
2017-09-21T10:04:41.203Z,76.71
2017-09-21T10:07:08.683Z,76.52
2017-09-21T10:09:36.148Z,76.62
2017-09-21T10:12:04.079Z,76.72
2017-09-21T10:14:31.533Z,76.66
2017-09-21T10:16:59.007Z,75.97
2017-09-21T10:19:26.486Z,75.40
2017-09-21T10:21:53.961Z,74.82
2017-09-21T10:24:21.437Z,73.87
2017-09-21T10:26:48.950Z,73.15
2017-09-21T10:29:16.705Z,72.98
2017-09-21T10:31:44.175Z,72.22
2017-09-21T10:34:11.689Z,70.75
2017-09-21T10:36:39.173Z,69.56
2017-09-21T10:39:06.655Z,68.83
2017-09-21T10:41:34.142Z,66.88
2017-09-21T10:44:01.602Z,65.81
2017-09-21T10:46:29.105Z,63.52
2017-09-21T10:48:56.584Z,61.52
2017-09-21T10:51:24.391Z,60.27
2017-09-21T10:53:51.860Z,59.31
2017-09-21T10:56:19.338Z,57.01
2017-09-21T10:58:46.832Z,54.97
2017-09-21T11:01:14.290Z,54.46
2017-09-21T11:03:42.106Z,53.71
2017-09-21T11:06:09.582Z,52.90
2017-09-21T11:08:37.053Z,52.13
2017-09-21T11:11:04.559Z,50.67
2017-09-21T11:13:32.031Z,48.67
2017-09-21T11:15:59.519Z,46.64
2017-09-21T11:18:26.994Z,44.22
2017-09-21T11:20:54.815Z,42.06
2017-09-21T11:23:22.306Z,40.32
2017-09-21T11:25:49.787Z,38.82
2017-09-21T11:28:18.006Z,38.64
2017-09-21T11:30:45.480Z,38.05
2017-09-21T11:33:12.966Z,38.21
2017-09-21T11:35:40.457Z,38.94
2017-09-21T11:38:07.936Z,40.75
2017-09-21T11:40:35.489Z,41.61
2017-09-21T11:43:02.972Z,42.81
2017-09-21T11:45:30.451Z,43.67
2017-09-21T11:47:57.927Z,44.20
2017-09-21T11:50:25.404Z,44.52
2017-09-21T11:52:52.890Z,44.71
2017-09-21T11:55:20.356Z,44.43
2017-09-21T11:57:47.896Z,43.17
2017-09-21T12:00:15.389Z,42.47
2017-09-21T12:02:42.896Z,42.35
2017-09-21T12:05:10.407Z,42.51
2017-09-21T12:07:38.226Z,42.60
2017-09-21T12:10:05.728Z,41.96
2017-09-21T12:12:33.204Z,41.73
2017-09-21T12:15:00.720Z,42.13
2017-09-21T12:17:29.675Z,41.83
2017-09-21T12:19:57.216Z,40.63
2017-09-21T12:22:24.759Z,40.97
2017-09-21T12:24:52.585Z,41.36
2017-09-21T12:27:20.074Z,40.55
2017-09-21T12:29:47.549Z,39.87
2017-09-21T12:32:15.062Z,38.99
2017-09-21T12:34:42.608Z,38.63
2017-09-21T12:37:10.459Z,39.82
2017-09-21T12:39:37.975Z,40.13
2017-09-21T12:42:05.464Z,39.84
2017-09-21T12:44:33.072Z,39.72
2017-09-21T12:47:01.070Z,38.47
2017-09-21T12:49:28.547Z,38.75
2017-09-21T12:51:56.052Z,39.45
2017-09-21T12:54:23.802Z,40.42
2017-09-21T12:56:51.284Z,39.89
2017-09-21T12:59:18.760Z,37.46
2017-09-21T13:01:46.292Z,36.46
2017-09-21T13:04:13.767Z,38.08
2017-09-21T13:06:41.266Z,34.78
2017-09-21T13:09:08.745Z,34.16
2017-09-21T13:11:36.240Z,34.38
2017-09-21T13:14:03.698Z,33.75
2017-09-21T13:16:31.174Z,34.24
2017-09-21T13:18:58.635Z,34.72
2017-09-21T13:21:26.365Z,34.85
2017-09-21T13:23:53.839Z,33.54
2017-09-21T13:26:21.680Z,35.56
2017-09-21T13:28:49.231Z,35.01
2017-09-21T13:31:16.706Z,35.23
2017-09-21T13:33:44.216Z,34.87
2017-09-21T13:36:11.675Z,33.37
2017-09-21T13:38:39.474Z,33.75
2017-09-21T13:41:06.941Z,34.04
2017-09-21T13:43:34.456Z,34.13
2017-09-21T13:46:01.931Z,33.48
2017-09-21T13:48:29.397Z,33.62
2017-09-21T13:50:56.996Z,33.85
2017-09-21T13:53:24.471Z,33.92
2017-09-21T13:55:51.976Z,33.63
2017-09-21T13:58:19.456Z,33.37
2017-09-21T14:00:46.973Z,33.01
2017-09-21T14:03:14.467Z,33.42
2017-09-21T14:05:41.961Z,33.66
2017-09-21T14:08:09.422Z,33.40
2017-09-21T14:10:37.190Z,33.21
2017-09-21T14:13:04.686Z,33.54
2017-09-21T14:15:32.188Z,33.78
2017-09-21T14:17:59.679Z,33.58
2017-09-21T14:20:27.141Z,33.67
2017-09-21T14:22:54.626Z,33.63
2017-09-21T14:25:22.141Z,33.83
2017-09-21T14:27:49.612Z,32.80
2017-09-21T14:30:17.215Z,33.55
2017-09-21T14:32:45.192Z,33.92
2017-09-21T14:35:12.734Z,34.13
2017-09-21T14:37:41.284Z,34.11
2017-09-21T14:40:08.789Z,33.83
2017-09-21T14:42:36.292Z,34.10
2017-09-21T14:45:03.805Z,34.28
2017-09-21T14:47:31.306Z,35.24
2017-09-21T14:49:59.247Z,35.72
2017-09-21T14:52:26.803Z,36.01
2017-09-21T14:54:54.282Z,37.72
2017-09-21T14:57:21.761Z,37.55
2017-09-21T14:59:49.222Z,38.21
2017-09-21T15:02:16.715Z,39.69
2017-09-21T15:04:44.198Z,40.23
2017-09-21T15:07:11.698Z,41.16
2017-09-21T15:09:39.154Z,40.69
2017-09-21T15:12:06.679Z,39.50
2017-09-21T15:14:34.149Z,39.88
2017-09-21T15:17:01.615Z,40.33
2017-09-21T15:19:29.064Z,41.09
2017-09-21T15:21:56.554Z,41.03
2017-09-21T15:24:24.017Z,41.39
2017-09-21T15:26:51.876Z,41.86
2017-09-21T15:29:19.361Z,42.59
2017-09-21T15:31:46.838Z,43.14
2017-09-21T15:34:14.348Z,43.63
2017-09-21T15:36:41.846Z,44.10
2017-09-21T15:39:09.315Z,45.33
2017-09-21T15:41:36.781Z,45.25
2017-09-21T15:44:04.234Z,45.35
2017-09-21T15:46:31.699Z,45.67
2017-09-21T15:48:59.254Z,46.74
2017-09-21T15:51:26.712Z,47.08
2017-09-21T15:53:54.258Z,47.40
2017-09-21T15:56:21.816Z,47.48
2017-09-21T15:58:49.645Z,47.76
2017-09-21T16:01:17.137Z,48.16
2017-09-21T16:03:44.640Z,48.37
2017-09-21T16:06:12.111Z,48.64
2017-09-21T16:08:39.584Z,48.82
2017-09-21T16:11:07.072Z,49.15
2017-09-21T16:13:34.551Z,49.63
2017-09-21T16:16:02.072Z,49.93
2017-09-21T16:18:29.553Z,50.17
2017-09-21T16:20:57.084Z,50.39
2017-09-21T16:23:24.601Z,50.77
2017-09-21T16:25:53.097Z,51.24
2017-09-21T16:28:20.591Z,51.68
2017-09-21T16:30:48.080Z,52.07
2017-09-21T16:33:15.586Z,52.41
2017-09-21T16:35:43.107Z,52.84
2017-09-21T16:38:10.921Z,53.24
2017-09-21T16:40:38.380Z,53.76
2017-09-21T16:43:05.838Z,54.24
2017-09-21T16:45:33.312Z,54.79
2017-09-21T16:48:00.797Z,55.22
2017-09-21T16:50:28.330Z,55.64
2017-09-21T16:52:55.800Z,56.27
2017-09-21T16:55:23.627Z,56.90
2017-09-21T16:57:51.172Z,58.07
2017-09-21T17:00:18.675Z,58.23
2017-09-21T17:02:46.177Z,58.03
2017-09-21T17:05:13.646Z,57.98
2017-09-21T17:07:41.202Z,58.08
2017-09-21T17:10:08.663Z,58.07
2017-09-21T17:12:36.431Z,58.38
2017-09-21T17:15:03.904Z,58.33
2017-09-21T17:17:31.420Z,58.42
2017-09-21T17:19:58.908Z,58.38
2017-09-21T17:22:26.444Z,58.11
2017-09-21T17:24:53.961Z,57.94
2017-09-21T17:27:21.427Z,58.06
2017-09-21T17:29:48.982Z,58.25
2017-09-21T17:32:16.444Z,58.47
2017-09-21T17:34:44.291Z,58.63
2017-09-21T17:37:11.780Z,58.69
2017-09-21T17:39:39.250Z,58.90
2017-09-21T17:42:06.752Z,59.11
2017-09-21T17:44:34.206Z,59.19
2017-09-21T17:47:01.697Z,59.35
2017-09-21T17:49:29.155Z,59.51
2017-09-21T17:51:56.628Z,59.59
2017-09-21T17:54:24.224Z,59.67
2017-09-21T17:56:51.977Z,59.72
2017-09-21T17:59:19.448Z,59.93
2017-09-21T18:01:46.929Z,60.03
2017-09-21T18:04:14.429Z,60.22
2017-09-21T18:06:41.910Z,60.46
2017-09-21T18:09:09.403Z,60.70
2017-09-21T18:11:36.879Z,61.11
2017-09-21T18:14:04.830Z,61.26
2017-09-21T18:16:32.320Z,61.57
2017-09-21T18:18:59.800Z,61.74
2017-09-21T18:21:27.264Z,61.87
2017-09-21T18:23:54.783Z,62.06
2017-09-21T18:26:22.318Z,62.38
2017-09-21T18:28:49.828Z,62.60
2017-09-21T18:31:17.455Z,62.85
2017-09-21T18:33:44.951Z,63.03
2017-09-21T18:36:12.496Z,63.30
2017-09-21T18:38:40.009Z,63.51
2017-09-21T18:41:07.772Z,63.68
2017-09-21T18:43:35.241Z,63.86
2017-09-21T18:46:02.710Z,64.17
2017-09-21T18:48:30.187Z,64.09
2017-09-21T18:50:57.649Z,63.94
2017-09-21T18:53:25.483Z,64.26
2017-09-21T18:55:53.016Z,64.32
2017-09-21T18:58:20.487Z,64.63
2017-09-21T19:00:47.960Z,64.87
2017-09-21T19:03:15.441Z,65.04
2017-09-21T19:05:42.933Z,65.68
2017-09-21T19:08:10.401Z,66.21
2017-09-21T19:10:38.252Z,66.20
2017-09-21T19:13:05.716Z,66.21
2017-09-21T19:15:33.174Z,66.20
2017-09-21T19:18:00.659Z,66.42
2017-09-21T19:20:28.126Z,66.63
2017-09-21T19:22:55.633Z,66.81
2017-09-21T19:25:23.127Z,66.98
2017-09-21T19:27:50.616Z,67.21
2017-09-21T19:30:18.112Z,67.62
2017-09-21T19:32:45.637Z,68.00
2017-09-21T19:35:13.158Z,68.43
2017-09-21T19:37:40.961Z,68.75
2017-09-21T19:40:08.462Z,69.04
2017-09-21T19:42:35.934Z,69.26
2017-09-21T19:45:03.449Z,69.46
2017-09-21T19:47:31.153Z,69.56
2017-09-21T19:49:58.663Z,69.90
2017-09-21T19:52:26.182Z,70.11
2017-09-21T19:54:53.667Z,70.13
2017-09-21T19:57:21.274Z,70.24
2017-09-21T19:59:48.787Z,70.34
2017-09-21T20:02:16.294Z,70.54
2017-09-21T20:04:44.180Z,70.78
2017-09-21T20:07:11.668Z,70.91
2017-09-21T20:09:39.143Z,70.97
2017-09-21T20:12:06.621Z,71.12
2017-09-21T20:14:34.095Z,71.18
2017-09-21T20:17:01.581Z,71.25
2017-09-21T20:19:29.159Z,71.44
2017-09-21T20:21:56.659Z,71.50
2017-09-21T20:24:24.145Z,71.57
2017-09-21T20:26:51.922Z,71.74
2017-09-21T20:29:19.441Z,71.84
2017-09-21T20:31:46.950Z,71.99
2017-09-21T20:34:14.446Z,72.17
2017-09-21T20:36:41.938Z,72.28
2017-09-21T20:39:09.436Z,72.61
2017-09-21T20:41:36.909Z,72.65
2017-09-21T20:44:04.430Z,73.03
2017-09-21T20:46:31.934Z,73.10
2017-09-21T20:48:59.407Z,73.16
2017-09-21T20:51:26.910Z,73.11
2017-09-21T20:53:54.746Z,73.26
2017-09-21T20:56:22.215Z,73.54
2017-09-21T20:58:49.728Z,73.62
2017-09-21T21:01:17.234Z,73.69
2017-09-21T21:03:44.769Z,73.76
2017-09-21T21:06:12.360Z,73.65
2017-09-21T21:08:39.856Z,73.60
2017-09-21T21:11:07.327Z,73.51
2017-09-21T21:13:34.844Z,73.34
2017-09-21T21:16:02.655Z,73.33
2017-09-21T21:18:30.157Z,73.19
2017-09-21T21:20:57.667Z,73.11
2017-09-21T21:23:25.158Z,73.05
2017-09-21T21:25:52.618Z,73.05
2017-09-21T21:28:20.095Z,72.96
2017-09-21T21:30:47.569Z,73.00
2017-09-21T21:33:15.063Z,72.91
2017-09-21T21:35:42.553Z,72.70
2017-09-21T21:38:10.028Z,72.64
2017-09-21T21:40:37.588Z,72.56
2017-09-21T21:43:05.059Z,72.60
2017-09-21T21:45:32.563Z,72.65
2017-09-21T21:48:00.023Z,72.84
2017-09-21T21:50:27.943Z,73.30
2017-09-21T21:52:55.424Z,73.37
2017-09-21T21:55:22.961Z,73.46
2017-09-21T21:57:50.472Z,73.76
2017-09-21T22:00:17.942Z,74.14
2017-09-21T22:02:45.435Z,74.20
2017-09-21T22:05:12.914Z,74.33
2017-09-21T22:07:40.679Z,74.25
2017-09-21T22:10:08.133Z,74.17
2017-09-21T22:12:35.598Z,74.15
2017-09-21T22:15:03.100Z,74.19
2017-09-21T22:17:30.593Z,74.19
2017-09-21T22:19:58.370Z,74.26
2017-09-21T22:22:25.838Z,74.27
2017-09-21T22:24:53.325Z,74.39
2017-09-21T22:27:20.802Z,74.49
2017-09-21T22:29:48.307Z,74.60
2017-09-21T22:32:15.815Z,74.69
2017-09-21T22:34:43.293Z,74.83
2017-09-21T22:37:11.097Z,74.83
2017-09-21T22:39:38.579Z,74.90
2017-09-21T22:42:06.039Z,74.96
2017-09-21T22:44:33.516Z,75.00
2017-09-21T22:47:00.979Z,75.06
2017-09-21T22:49:28.463Z,75.17
2017-09-21T22:51:55.929Z,75.19
2017-09-21T22:54:23.393Z,75.24
2017-09-21T22:56:50.855Z,75.36
2017-09-21T22:59:18.622Z,75.56
2017-09-21T23:01:46.090Z,75.48
2017-09-21T23:04:13.586Z,75.46
2017-09-21T23:06:41.060Z,75.42
2017-09-21T23:09:08.518Z,75.48
2017-09-21T23:11:35.995Z,75.62
2017-09-21T23:14:03.492Z,75.71
2017-09-21T23:16:30.978Z,75.72
2017-09-21T23:18:58.443Z,75.65
2017-09-21T23:21:25.916Z,75.64
2017-09-21T23:23:53.375Z,75.61
2017-09-21T23:26:21.178Z,75.60
2017-09-21T23:28:48.643Z,75.59
2017-09-21T23:31:16.105Z,75.76
2017-09-21T23:33:43.585Z,76.04
2017-09-21T23:36:11.118Z,76.21
2017-09-21T23:38:38.602Z,76.25
2017-09-21T23:41:06.059Z,76.35
2017-09-21T23:43:33.537Z,76.62
2017-09-21T23:46:01.013Z,76.67
2017-09-21T23:48:28.499Z,76.74
2017-09-21T23:50:55.981Z,76.59
2017-09-21T23:53:23.852Z,76.57
2017-09-21T23:55:51.322Z,76.30
2017-09-21T23:58:18.774Z,76.22
